createdAt,value
2022-08-24T00:01:18.297Z,76922.88
2022-08-24T00:03:45.424Z,76922.88
2022-08-24T00:06:13.408Z,76920.88
2022-08-24T00:08:40.362Z,76922.88
2022-08-24T00:11:07.260Z,76922.88
2022-08-24T00:13:36.699Z,76924.88
2022-08-24T00:16:06.189Z,76920.88
2022-08-24T00:18:33.524Z,76918.88
2022-08-24T00:21:00.281Z,76916.88
2022-08-24T00:23:26.707Z,76914.88
2022-08-24T00:25:53.112Z,76914.88
2022-08-24T00:28:19.459Z,76922.88
2022-08-24T00:30:45.952Z,76918.88
2022-08-24T00:33:12.440Z,76914.88
2022-08-24T00:35:39.834Z,76918.88
2022-08-24T00:38:06.360Z,76922.88
2022-08-24T00:40:34.808Z,76918.88
2022-08-24T00:43:04.570Z,76918.88
2022-08-24T00:45:34.486Z,76922.88
2022-08-24T00:48:03.144Z,76922.88
2022-08-24T00:50:33.476Z,76922.88
2022-08-24T00:53:02.424Z,76926.88
2022-08-24T00:55:32.788Z,76934.91
2022-08-24T00:58:01.931Z,76930.88
2022-08-24T01:00:32.094Z,76940.91
2022-08-24T01:03:05.322Z,76934.91
2022-08-24T01:05:32.703Z,76938.91
2022-08-24T01:07:59.396Z,76930.88
2022-08-24T01:10:27.343Z,76934.91
2022-08-24T01:13:00.526Z,76938.91
2022-08-24T01:15:28.611Z,76932.88
2022-08-24T01:18:13.823Z,76934.91
2022-08-24T01:20:40.269Z,76934.91
2022-08-24T01:23:25.564Z,76938.91
2022-08-24T01:26:02.907Z,76942.91
2022-08-24T01:28:30.229Z,76942.91
2022-08-24T01:30:58.620Z,76948.91
2022-08-24T01:33:28.808Z,76942.91
2022-08-24T01:35:58.737Z,76944.91
2022-08-24T01:38:25.707Z,76942.91
2022-08-24T01:40:54.799Z,76942.91
2022-08-24T01:43:21.815Z,76938.91
2022-08-24T01:45:48.174Z,76942.91
2022-08-24T01:48:15.366Z,76942.91
2022-08-24T01:50:49.263Z,76934.91
2022-08-24T01:53:15.861Z,76934.91
2022-08-24T01:55:42.415Z,76934.91
2022-08-24T01:58:08.798Z,76938.91
2022-08-24T02:00:35.949Z,76940.91
2022-08-24T02:03:03.094Z,76942.91
2022-08-24T02:05:29.739Z,76946.91
2022-08-24T02:07:56.818Z,76938.91
2022-08-24T02:10:23.583Z,76946.91
2022-08-24T02:12:57.992Z,76944.91
2022-08-24T02:15:27.421Z,76946.91
2022-08-24T02:17:54.619Z,76946.91
2022-08-24T02:20:21.714Z,76938.91
2022-08-24T02:22:49.821Z,76946.91
2022-08-24T02:25:17.044Z,76946.91
2022-08-24T02:27:43.511Z,76946.91
2022-08-24T02:30:10.653Z,76946.91
2022-08-24T02:32:38.382Z,76946.91
2022-08-24T02:35:05.282Z,76948.91
2022-08-24T02:37:31.683Z,76950.91
2022-08-24T02:39:58.109Z,76948.91
2022-08-24T02:42:24.483Z,76942.91
2022-08-24T02:44:50.848Z,76950.91
2022-08-24T02:47:20.183Z,76948.91
2022-08-24T02:49:46.930Z,76950.91
2022-08-24T02:52:13.310Z,76946.91
2022-08-24T02:54:39.767Z,76950.91
2022-08-24T02:57:06.174Z,76942.91
2022-08-24T02:59:32.670Z,76942.91
2022-08-24T03:01:59.134Z,76946.91
2022-08-24T03:04:25.735Z,76944.91
2022-08-24T03:06:52.651Z,76942.91
2022-08-24T03:09:19.157Z,76938.91
2022-08-24T03:11:45.899Z,76942.91
2022-08-24T03:14:13.208Z,76944.91
2022-08-24T03:16:39.585Z,76946.91
2022-08-24T03:19:06.101Z,76942.91
2022-08-24T03:21:33.452Z,76944.91
2022-08-24T03:23:59.845Z,76946.91
2022-08-24T03:26:26.265Z,76946.91
2022-08-24T03:28:52.924Z,76942.91
2022-08-24T03:31:19.420Z,76938.91
2022-08-24T03:33:46.614Z,76946.91
2022-08-24T03:36:14.525Z,76942.91
2022-08-24T03:38:41.525Z,76942.91
2022-08-24T03:41:07.934Z,76946.91
2022-08-24T03:43:46.768Z,76946.91
2022-08-24T03:46:14.962Z,76946.91
2022-08-24T03:48:41.507Z,76942.91
2022-08-24T03:51:10.725Z,76946.91
2022-08-24T03:53:37.596Z,76946.91
2022-08-24T03:56:10.089Z,76956.91
2022-08-24T03:58:37.387Z,76954.91
2022-08-24T04:01:04.393Z,76954.91
2022-08-24T04:03:32.633Z,76958.91
2022-08-24T04:05:59.576Z,76958.91
2022-08-24T04:08:27.230Z,76956.91
2022-08-24T04:10:54.495Z,76962.91
2022-08-24T04:13:20.915Z,76956.91
2022-08-24T04:15:47.459Z,76958.91
2022-08-24T04:18:14.046Z,76958.91
2022-08-24T04:20:41.450Z,76958.91
2022-08-24T04:23:08.954Z,76954.91
2022-08-24T04:25:41.001Z,76970.91
2022-08-24T04:28:07.458Z,76966.91
2022-08-24T04:30:33.966Z,76968.91
2022-08-24T04:33:00.406Z,76966.91
2022-08-24T04:35:26.887Z,76972.94
2022-08-24T04:37:53.309Z,76970.91
2022-08-24T04:40:19.742Z,76972.94
2022-08-24T04:42:46.871Z,76978.94
2022-08-24T04:45:15.927Z,76970.91
2022-08-24T04:47:44.007Z,76976.94
2022-08-24T04:50:10.471Z,76986.94
2022-08-24T04:52:37.096Z,76984.94
2022-08-24T04:55:03.663Z,76982.94
2022-08-24T04:57:30.074Z,76990.94
2022-08-24T04:59:57.486Z,76990.94
2022-08-24T05:02:24.591Z,76994.94
2022-08-24T05:04:51.798Z,76994.94
2022-08-24T05:07:18.516Z,76994.94
2022-08-24T05:09:45.102Z,76998.94
2022-08-24T05:12:12.518Z,76998.94
2022-08-24T05:14:39.013Z,76998.94
2022-08-24T05:17:05.455Z,76998.94
2022-08-24T05:19:35.802Z,77000.94
2022-08-24T05:22:02.170Z,76998.94
2022-08-24T05:24:28.690Z,76992.94
2022-08-24T05:26:55.102Z,76994.94
2022-08-24T05:29:21.676Z,76998.94
2022-08-24T05:31:48.287Z,77004.94
2022-08-24T05:34:14.869Z,77002.94
2022-08-24T05:36:41.575Z,76996.94
2022-08-24T05:39:11.372Z,76992.94
2022-08-24T05:41:38.415Z,77002.94
2022-08-24T05:44:10.922Z,77004.94
2022-08-24T05:46:37.492Z,77010.97
2022-08-24T05:49:04.038Z,77006.94
2022-08-24T05:51:30.930Z,77006.94
2022-08-24T05:53:58.088Z,77010.97
2022-08-24T05:56:26.730Z,77010.97
2022-08-24T05:58:56.573Z,77014.97
2022-08-24T06:01:24.192Z,77010.97
2022-08-24T06:03:51.704Z,77014.97
2022-08-24T06:06:19.301Z,77008.97
2022-08-24T06:08:47.054Z,77010.97
2022-08-24T06:11:21.005Z,77006.94
2022-08-24T06:13:50.327Z,77006.94
2022-08-24T06:16:24.036Z,77008.97
2022-08-24T06:18:51.357Z,77006.94
2022-08-24T06:21:21.054Z,77006.94
2022-08-24T06:23:47.872Z,77004.94
2022-08-24T06:26:33.259Z,76998.94
2022-08-24T06:29:00.492Z,77000.94
2022-08-24T06:31:27.628Z,77000.94
2022-08-24T06:33:54.822Z,76994.94
2022-08-24T06:36:22.820Z,76998.94
2022-08-24T06:38:49.458Z,76994.94
2022-08-24T06:41:16.511Z,76998.94
2022-08-24T06:43:42.950Z,76994.94
2022-08-24T06:46:09.391Z,76994.94
2022-08-24T06:48:35.938Z,76996.94
2022-08-24T06:51:07.810Z,76994.94
2022-08-24T06:53:34.202Z,76998.94
2022-08-24T06:56:00.798Z,76998.94
2022-08-24T06:58:28.463Z,77002.94
2022-08-24T07:00:56.544Z,76998.94
2022-08-24T07:03:24.067Z,77002.94
2022-08-24T07:05:51.706Z,76998.94
2022-08-24T07:08:18.375Z,76998.94
2022-08-24T07:10:44.833Z,76998.94
2022-08-24T07:13:12.742Z,77002.94
2022-08-24T07:15:39.598Z,76998.94
2022-08-24T07:18:10.057Z,77002.94
2022-08-24T07:20:37.040Z,77006.94
2022-08-24T07:23:04.922Z,77010.97
2022-08-24T07:25:32.200Z,77004.94
2022-08-24T07:28:00.731Z,77010.97
2022-08-24T07:30:28.099Z,77006.94
2022-08-24T07:32:55.698Z,77010.97
2022-08-24T07:35:22.258Z,77014.97
2022-08-24T07:37:48.682Z,77010.97
2022-08-24T07:40:17.607Z,77014.97
2022-08-24T07:42:47.651Z,77014.97
2022-08-24T07:45:14.073Z,77018.97
2022-08-24T07:47:47.027Z,77020.97
2022-08-24T07:50:20.755Z,77018.97
2022-08-24T07:52:47.442Z,77014.97
2022-08-24T07:55:14.684Z,77016.97
2022-08-24T07:57:41.456Z,77012.97
2022-08-24T08:00:10.511Z,77006.94
2022-08-24T08:02:42.962Z,76994.94
2022-08-24T08:05:10.126Z,76982.94
2022-08-24T08:07:36.571Z,76994.94
2022-08-24T08:10:03.268Z,76990.94
2022-08-24T08:12:29.647Z,76986.94
2022-08-24T08:14:57.469Z,76982.94
2022-08-24T08:17:24.062Z,76982.94
2022-08-24T08:19:50.626Z,76980.94
2022-08-24T08:22:35.930Z,76986.94
2022-08-24T08:25:02.359Z,76986.94
2022-08-24T08:27:28.811Z,76988.94
2022-08-24T08:29:55.304Z,76992.94
2022-08-24T08:32:21.755Z,76988.94
2022-08-24T08:34:48.126Z,76996.94
2022-08-24T08:37:15.488Z,76998.94
2022-08-24T08:39:42.283Z,76998.94
2022-08-24T08:42:18.352Z,76998.94
2022-08-24T08:45:03.308Z,77002.94
2022-08-24T08:47:35.934Z,77002.94
2022-08-24T08:50:08.214Z,76996.94
2022-08-24T08:52:48.041Z,77006.94
2022-08-24T08:55:23.901Z,77000.94
2022-08-24T08:57:53.976Z,77006.94
2022-08-24T09:00:22.719Z,77002.94
2022-08-24T09:02:49.131Z,77004.94
2022-08-24T09:05:15.977Z,77004.94
2022-08-24T09:07:45.411Z,77006.94
2022-08-24T09:10:30.697Z,77006.94
2022-08-24T09:12:57.144Z,77012.97
2022-08-24T09:15:32.924Z,77012.97
2022-08-24T09:18:08.316Z,77012.97
2022-08-24T09:20:41.159Z,77010.97
2022-08-24T09:23:26.939Z,77010.97
2022-08-24T09:26:04.595Z,77010.97
2022-08-24T09:28:43.916Z,77010.97
2022-08-24T09:31:10.540Z,77014.97
2022-08-24T09:33:55.380Z,77006.94
2022-08-24T09:36:34.796Z,77008.97
2022-08-24T09:39:18.543Z,77012.97
2022-08-24T09:42:03.786Z,77006.94
2022-08-24T09:44:39.597Z,77010.97
2022-08-24T09:47:06.016Z,77006.94
2022-08-24T09:49:51.072Z,77010.97
2022-08-24T09:52:36.163Z,77010.97
2022-08-24T09:55:25.734Z,77010.97
2022-08-24T09:58:00.978Z,77004.94
2022-08-24T10:00:30.848Z,77004.94
2022-08-24T10:03:06.181Z,77004.94
2022-08-24T10:05:36.488Z,77002.94
2022-08-24T10:08:06.011Z,77000.94
2022-08-24T10:10:33.110Z,77000.94
2022-08-24T10:13:25.257Z,77004.94
2022-08-24T10:16:07.639Z,76998.94
2022-08-24T10:18:35.365Z,77006.94
2022-08-24T10:21:24.476Z,77000.94
2022-08-24T10:23:57.063Z,77002.94
2022-08-24T10:26:31.435Z,77000.94
2022-08-24T10:29:16.431Z,77006.94
2022-08-24T10:31:58.364Z,77006.94
2022-08-24T10:34:50.043Z,77008.97
2022-08-24T10:37:35.013Z,77006.94
2022-08-24T10:40:13.872Z,76998.94
2022-08-24T10:43:09.227Z,77002.94
2022-08-24T10:45:35.715Z,76994.94
2022-08-24T10:48:02.544Z,77002.94
2022-08-24T10:50:40.802Z,76998.94
2022-08-24T10:53:14.757Z,77000.94
2022-08-24T10:55:41.522Z,76998.94
2022-08-24T10:58:20.564Z,76998.94
2022-08-24T11:00:47.195Z,76998.94
2022-08-24T11:03:13.805Z,77002.94
2022-08-24T11:05:45.671Z,77002.94
2022-08-24T11:08:22.570Z,77000.94
2022-08-24T11:11:09.858Z,76994.94
2022-08-24T11:13:37.766Z,76994.94
2022-08-24T11:16:05.061Z,76996.94
2022-08-24T11:19:07.124Z,76990.94
2022-08-24T11:21:36.352Z,76994.94
2022-08-24T11:24:04.666Z,76994.94
2022-08-24T11:26:31.223Z,76994.94
2022-08-24T11:28:59.416Z,76984.94
2022-08-24T11:31:36.059Z,76990.94
2022-08-24T11:34:08.270Z,76990.94
2022-08-24T11:36:36.770Z,76990.94
2022-08-24T11:39:12.187Z,77000.94
2022-08-24T11:41:50.931Z,76994.94
2022-08-24T11:44:26.657Z,76994.94
2022-08-24T11:47:00.195Z,76994.94
2022-08-24T11:49:45.484Z,76990.94
2022-08-24T11:52:16.958Z,76990.94
2022-08-24T11:54:52.791Z,76996.94
2022-08-24T11:57:26.578Z,76994.94
2022-08-24T11:59:52.940Z,76992.94
2022-08-24T12:02:26.261Z,76988.94
2022-08-24T12:04:57.879Z,76990.94
2022-08-24T12:07:34.043Z,76990.94
2022-08-24T12:10:09.747Z,76986.94
2022-08-24T12:12:56.424Z,76984.94
2022-08-24T12:15:22.855Z,76982.94
2022-08-24T12:18:05.463Z,76988.94
2022-08-24T12:20:35.716Z,76988.94
2022-08-24T12:23:09.098Z,76978.94
2022-08-24T12:25:54.693Z,76978.94
2022-08-24T12:28:24.147Z,76982.94
2022-08-24T12:30:52.904Z,76978.94
2022-08-24T12:33:22.920Z,76978.94
2022-08-24T12:35:54.164Z,76980.94
2022-08-24T12:38:26.863Z,76978.94
2022-08-24T12:40:56.506Z,76978.94
2022-08-24T12:43:27.411Z,76978.94
2022-08-24T12:45:59.954Z,76980.94
2022-08-24T12:48:37.643Z,76980.94
2022-08-24T12:51:06.818Z,76982.94
2022-08-24T12:53:42.575Z,76978.94
2022-08-24T12:56:12.096Z,76986.94
2022-08-24T12:58:54.374Z,76990.94
2022-08-24T13:01:26.473Z,76988.94
2022-08-24T13:04:22.167Z,76982.94
2022-08-24T13:06:51.065Z,76986.94
2022-08-24T13:09:27.744Z,76990.94
2022-08-24T13:11:56.799Z,76982.94
2022-08-24T13:14:24.735Z,76986.94
2022-08-24T13:16:51.400Z,76986.94
2022-08-24T13:19:31.595Z,76984.94
2022-08-24T13:22:10.242Z,76988.94
2022-08-24T13:24:38.539Z,76990.94
2022-08-24T13:27:11.106Z,76986.94
2022-08-24T13:29:38.813Z,76984.94
2022-08-24T13:32:05.879Z,76982.94
2022-08-24T13:34:37.463Z,76980.94
2022-08-24T13:37:23.490Z,76976.94
2022-08-24T13:39:55.329Z,76972.94
2022-08-24T13:42:40.576Z,76970.91
2022-08-24T13:45:06.955Z,76962.91
2022-08-24T13:47:49.639Z,76958.91
2022-08-24T13:50:28.363Z,76958.91
2022-08-24T13:53:13.470Z,76950.91
2022-08-24T13:55:40.783Z,76956.91
2022-08-24T13:58:26.903Z,76958.91
2022-08-24T14:01:07.010Z,76962.91
2022-08-24T14:04:02.951Z,76958.91
2022-08-24T14:06:31.980Z,76962.91
2022-08-24T14:09:09.530Z,76958.91
2022-08-24T14:11:57.020Z,76958.91
2022-08-24T14:14:23.447Z,76958.91
2022-08-24T14:17:08.623Z,76954.91
2022-08-24T14:19:59.324Z,76954.91
2022-08-24T14:22:29.674Z,76958.91
2022-08-24T14:25:11.936Z,76958.91
2022-08-24T14:27:40.532Z,76956.91
2022-08-24T14:30:18.863Z,76958.91
2022-08-24T14:33:03.511Z,76954.91
2022-08-24T14:35:32.753Z,76956.91
2022-08-24T14:37:59.115Z,76956.91
2022-08-24T14:40:37.729Z,76958.91
2022-08-24T14:43:30.848Z,76958.91
2022-08-24T14:46:16.420Z,76960.91
2022-08-24T14:48:48.515Z,76962.91
2022-08-24T14:51:54.401Z,76954.91
2022-08-24T14:54:35.918Z,76946.91
2022-08-24T14:57:17.752Z,76946.91
2022-08-24T14:59:56.109Z,76946.91
2022-08-24T15:02:22.506Z,76946.91
2022-08-24T15:04:52.354Z,76944.91
2022-08-24T15:07:27.042Z,76940.91
2022-08-24T15:09:55.716Z,76936.91
2022-08-24T15:12:32.212Z,76940.91
2022-08-24T15:15:21.709Z,76938.91
2022-08-24T15:17:57.499Z,76934.91
2022-08-24T15:20:36.111Z,76932.88
2022-08-24T15:23:07.931Z,76930.88
2022-08-24T15:25:37.106Z,76930.88
2022-08-24T15:28:24.080Z,76930.88
2022-08-24T15:30:55.025Z,76928.88
2022-08-24T15:33:21.618Z,76930.88
2022-08-24T15:35:49.804Z,76928.88
2022-08-24T15:38:31.550Z,76930.88
2022-08-24T15:41:07.284Z,76934.91
2022-08-24T15:43:35.874Z,76934.91
2022-08-24T15:46:02.808Z,76934.91
2022-08-24T15:48:30.090Z,76942.91
2022-08-24T15:50:56.765Z,76942.91
2022-08-24T15:53:41.766Z,76944.91
2022-08-24T15:56:20.342Z,76942.91
2022-08-24T15:58:47.567Z,76940.91
2022-08-24T16:01:32.778Z,76938.91
2022-08-24T16:04:00.447Z,76934.91
2022-08-24T16:06:26.867Z,76936.91
2022-08-24T16:09:16.552Z,76934.91
2022-08-24T16:11:45.836Z,76934.91
2022-08-24T16:14:25.302Z,76932.88
2022-08-24T16:16:53.617Z,76938.91
2022-08-24T16:19:28.007Z,76938.91
2022-08-24T16:22:01.028Z,76934.91
2022-08-24T16:24:33.005Z,76938.91
2022-08-24T16:27:02.954Z,76938.91
2022-08-24T16:29:38.911Z,76938.91
2022-08-24T16:32:05.454Z,76938.91
2022-08-24T16:34:32.779Z,76938.91
2022-08-24T16:36:59.887Z,76942.91
2022-08-24T16:39:26.520Z,76942.91
2022-08-24T16:42:03.832Z,76946.91
2022-08-24T16:44:40.815Z,76946.91
2022-08-24T16:47:08.555Z,76946.91
2022-08-24T16:49:35.593Z,76942.91
2022-08-24T16:52:03.515Z,76942.91
2022-08-24T16:54:30.994Z,76946.91
2022-08-24T16:56:58.307Z,76942.91
2022-08-24T16:59:30.597Z,76946.91
2022-08-24T17:01:57.039Z,76942.91
2022-08-24T17:04:23.622Z,76942.91
2022-08-24T17:06:50.755Z,76942.91
2022-08-24T17:09:17.978Z,76948.91
2022-08-24T17:11:44.647Z,76946.91
2022-08-24T17:14:11.667Z,76950.91
2022-08-24T17:16:38.987Z,76954.91
2022-08-24T17:19:10.939Z,76954.91
2022-08-24T17:21:39.108Z,76956.91
2022-08-24T17:24:06.611Z,76960.91
2022-08-24T17:26:33.191Z,76962.91
2022-08-24T17:29:02.076Z,76960.91
2022-08-24T17:31:31.030Z,76958.91
2022-08-24T17:33:58.131Z,76966.91
2022-08-24T17:36:25.077Z,76970.91
2022-08-24T17:38:55.886Z,76966.91
2022-08-24T17:41:24.108Z,76968.91
2022-08-24T17:43:50.607Z,76972.94
2022-08-24T17:46:18.153Z,76976.94
2022-08-24T17:48:45.542Z,76978.94
2022-08-24T17:51:13.555Z,76978.94
2022-08-24T17:53:40.243Z,76978.94
2022-08-24T17:56:07.533Z,76980.94
2022-08-24T17:58:54.522Z,76984.94
2022-08-24T18:01:21.088Z,76988.94
2022-08-24T18:03:47.692Z,76988.94
2022-08-24T18:06:14.264Z,76990.94
2022-08-24T18:08:40.658Z,76986.94
2022-08-24T18:11:07.079Z,76994.94
2022-08-24T18:13:33.530Z,76992.94
2022-08-24T18:16:00.469Z,76998.94
2022-08-24T18:18:26.930Z,76998.94
2022-08-24T18:20:53.823Z,76998.94
2022-08-24T18:23:21.398Z,77004.94
2022-08-24T18:25:51.490Z,77010.97
2022-08-24T18:28:21.949Z,77002.94
2022-08-24T18:30:50.316Z,77008.97
2022-08-24T18:33:17.531Z,77010.97
2022-08-24T18:35:45.710Z,77012.97
2022-08-24T18:38:12.158Z,77014.97
2022-08-24T18:40:39.496Z,77022.97
2022-08-24T18:43:06.213Z,77018.97
2022-08-24T18:45:33.083Z,77024.97
2022-08-24T18:47:59.647Z,77022.97
2022-08-24T18:50:28.866Z,77022.97
2022-08-24T18:52:56.307Z,77026.97
2022-08-24T18:55:23.664Z,77020.97
2022-08-24T18:57:50.262Z,77018.97
2022-08-24T19:00:16.675Z,77020.97
2022-08-24T19:02:43.144Z,77014.97
2022-08-24T19:05:11.225Z,77014.97
2022-08-24T19:07:39.430Z,77014.97
2022-08-24T19:10:07.235Z,77012.97
2022-08-24T19:12:36.909Z,77012.97
2022-08-24T19:15:03.959Z,77008.97
2022-08-24T19:17:31.141Z,77010.97
2022-08-24T19:19:57.671Z,77014.97
2022-08-24T19:22:25.094Z,77010.97
2022-08-24T19:24:51.568Z,77014.97
2022-08-24T19:27:19.118Z,77016.97
2022-08-24T19:29:55.513Z,77018.97
2022-08-24T19:32:24.059Z,77002.94
2022-08-24T19:34:51.811Z,77002.94
2022-08-24T19:37:18.711Z,77010.97
2022-08-24T19:39:45.875Z,77010.97
2022-08-24T19:42:15.319Z,77014.97
2022-08-24T19:45:00.704Z,77008.97
2022-08-24T19:47:27.098Z,77010.97
2022-08-24T19:49:53.514Z,77008.97
2022-08-24T19:52:20.384Z,77010.97
2022-08-24T19:54:47.552Z,77006.94
2022-08-24T19:57:26.252Z,77002.94
2022-08-24T19:59:52.969Z,77004.94
2022-08-24T20:02:19.412Z,77006.94
2022-08-24T20:04:45.883Z,77000.94
2022-08-24T20:07:15.330Z,77006.94
2022-08-24T20:09:41.703Z,77010.97
2022-08-24T20:12:09.065Z,77014.97
2022-08-24T20:14:37.554Z,77010.97
2022-08-24T20:17:05.413Z,77014.97
2022-08-24T20:19:34.247Z,77020.97
2022-08-24T20:22:01.111Z,77022.97
2022-08-24T20:24:27.598Z,77022.97
2022-08-24T20:26:54.036Z,77016.97
2022-08-24T20:29:20.798Z,77022.97
2022-08-24T20:31:50.737Z,77020.97
2022-08-24T20:34:18.711Z,77026.97
2022-08-24T20:36:48.202Z,77026.97
2022-08-24T20:39:17.942Z,77030.97
2022-08-24T20:41:44.544Z,77030.97
2022-08-24T20:44:11.783Z,77026.97
2022-08-24T20:46:39.935Z,77032.97
2022-08-24T20:49:07.273Z,77026.97
2022-08-24T20:51:34.350Z,77034.97
2022-08-24T20:54:05.226Z,77030.97
2022-08-24T20:56:34.555Z,77028.97
2022-08-24T20:59:01.756Z,77026.97
2022-08-24T21:01:28.432Z,77032.97
2022-08-24T21:03:54.871Z,77030.97
2022-08-24T21:06:21.363Z,77030.97
2022-08-24T21:08:48.811Z,77032.97
2022-08-24T21:11:15.454Z,77034.97
2022-08-24T21:13:41.843Z,77034.97
2022-08-24T21:16:12.161Z,77036.97
2022-08-24T21:18:38.708Z,77030.97
2022-08-24T21:21:05.566Z,77034.97
2022-08-24T21:23:33.079Z,77038.97
2022-08-24T21:26:00.891Z,77036.97
2022-08-24T21:28:27.516Z,77038.97
2022-08-24T21:30:53.968Z,77042.97
2022-08-24T21:33:39.010Z,77042.97
2022-08-24T21:36:05.711Z,77042.97
2022-08-24T21:38:33.722Z,77040.97
2022-08-24T21:41:00.532Z,77042.97
2022-08-24T21:43:26.948Z,77051.00
2022-08-24T21:45:54.540Z,77047.00
2022-08-24T21:48:21.094Z,77051.00
2022-08-24T21:50:48.730Z,77051.00
2022-08-24T21:53:15.713Z,77055.00
2022-08-24T21:55:42.896Z,77055.00
2022-08-24T21:58:10.360Z,77055.00
2022-08-24T22:00:37.603Z,77053.00
2022-08-24T22:03:05.051Z,77061.00
2022-08-24T22:05:31.679Z,77059.00
2022-08-24T22:07:58.644Z,77063.00
2022-08-24T22:10:26.236Z,77063.00
2022-08-24T22:12:52.938Z,77063.00
2022-08-24T22:15:23.351Z,77061.00
2022-08-24T22:17:52.905Z,77057.00
2022-08-24T22:20:23.350Z,77057.00
2022-08-24T22:22:50.660Z,77063.00
2022-08-24T22:25:17.162Z,77063.00
2022-08-24T22:27:44.487Z,77059.00
2022-08-24T22:30:12.564Z,77059.00
2022-08-24T22:32:38.969Z,77063.00
2022-08-24T22:35:06.391Z,77057.00
2022-08-24T22:37:34.131Z,77053.00
2022-08-24T22:40:00.806Z,77051.00
2022-08-24T22:42:28.471Z,77051.00
2022-08-24T22:44:55.012Z,77047.00
2022-08-24T22:47:24.261Z,77055.00
2022-08-24T22:49:50.690Z,77055.00
2022-08-24T22:52:17.517Z,77049.00
2022-08-24T22:54:43.914Z,77051.00
2022-08-24T22:57:12.006Z,77049.00
2022-08-24T22:59:40.044Z,77047.00
2022-08-24T23:02:08.775Z,77047.00
2022-08-24T23:04:37.434Z,77040.97
2022-08-24T23:07:04.432Z,77042.97
2022-08-24T23:09:33.992Z,77047.00
2022-08-24T23:12:12.123Z,77042.97
2022-08-24T23:14:38.616Z,77047.00
2022-08-24T23:17:05.418Z,77038.97
2022-08-24T23:19:50.535Z,77042.97
2022-08-24T23:22:18.186Z,77042.97
2022-08-24T23:24:46.246Z,77042.97
2022-08-24T23:27:13.717Z,77042.97
2022-08-24T23:29:40.831Z,77040.97
2022-08-24T23:32:07.536Z,77042.97
2022-08-24T23:34:34.504Z,77042.97
2022-08-24T23:37:01.373Z,77038.97
2022-08-24T23:39:28.001Z,77040.97
2022-08-24T23:41:54.961Z,77038.97
2022-08-24T23:44:23.640Z,77042.97
2022-08-24T23:46:50.461Z,77042.97
2022-08-24T23:49:18.066Z,77038.97
2022-08-24T23:51:44.483Z,77040.97
2022-08-24T23:54:11.074Z,77042.97
2022-08-24T23:56:38.831Z,77040.97
2022-08-24T23:59:07.018Z,77038.97
